Time;durP1;ratioP1;P1;durP2;ratioP2;P2;SDS_P1;SDS_P2;PMS_P1;PMS_P2;Temp;Humidity;BMP_temperature;BMP_pressure;BME280_temperature;BME280_humidity;BME280_pressure;Samples;Min_cycle;Max_cycle;Signal;HPM_P1;HPM_P2
2020/12/24 00:00:51;;;;;;;37.17;15.80;;;;;;;1.43;84.58;99603.43;1688106;83;21145;-57
2020/12/24 00:03:18;;;;;;;29.80;16.17;;;;;;;1.35;84.65;99600.17;1740833;82;21203;-57
2020/12/24 00:05:45;;;;;;;34.92;15.43;;;;;;;1.41;84.33;99597.98;1740806;82;21191;-57
2020/12/24 00:08:13;;;;;;;45.30;19.60;;;;;;;1.44;84.13;99600.23;1763160;81;21150;-57
2020/12/24 00:10:40;;;;;;;72.22;22.27;;;;;;;1.34;84.26;99602.05;1749471;81;21283;-57
2020/12/24 00:13:07;;;;;;;39.42;24.23;;;;;;;1.23;84.44;99587.16;1750398;81;21308;-57
2020/12/24 00:15:35;;;;;;;32.95;16.93;;;;;;;1.24;84.34;99592.84;1742725;81;21300;-57
2020/12/24 00:18:04;;;;;;;34.45;14.87;;;;;;;1.27;84.15;99594.57;1738028;80;21122;-57
2020/12/24 00:20:31;;;;;;;35.40;13.72;;;;;;;1.18;84.43;99595.02;1740998;81;21199;-57
2020/12/24 00:22:58;;;;;;;28.67;14.55;;;;;;;1.11;84.87;99593.71;1705238;84;21170;-57
2020/12/24 00:25:26;;;;;;;31.15;15.20;;;;;;;1.20;84.84;99597.81;1742878;81;21143;-57
2020/12/24 00:27:53;;;;;;;36.05;15.78;;;;;;;1.32;84.51;99598.75;1729196;83;21360;-57
2020/12/24 00:30:20;;;;;;;30.43;14.03;;;;;;;1.29;84.60;99595.16;1752494;81;21343;-57
2020/12/24 00:32:48;;;;;;;27.35;13.22;;;;;;;1.25;84.80;99603.84;1741817;81;21680;-57
2020/12/24 00:35:15;;;;;;;34.23;14.58;;;;;;;1.19;84.96;99602.86;1742786;81;21198;-57
2020/12/24 00:37:43;;;;;;;35.75;16.25;;;;;;;1.30;84.69;99605.37;1741615;81;21498;-57
2020/12/24 00:40:10;;;;;;;39.83;15.15;;;;;;;1.35;84.44;99604.19;1743027;81;21170;-57
2020/12/24 00:42:38;;;;;;;40.70;14.98;;;;;;;1.31;84.67;99606.48;1742436;82;21536;-57
2020/12/24 00:45:05;;;;;;;32.98;15.05;;;;;;;1.28;84.84;99608.77;1740713;82;21175;-57
2020/12/24 00:47:32;;;;;;;39.35;16.12;;;;;;;1.34;84.67;99599.89;1740830;82;21221;-57
2020/12/24 00:50:00;;;;;;;35.28;14.70;;;;;;;1.46;84.29;99596.80;1734773;81;21166;-57
2020/12/24 00:52:27;;;;;;;57.50;14.90;;;;;;;1.47;84.46;99598.45;1670369;85;21196;-57
2020/12/24 00:54:55;;;;;;;36.38;14.05;;;;;;;1.44;84.62;99605.08;1741022;81;21704;-57
2020/12/24 00:57:22;;;;;;;23.73;13.80;;;;;;;1.42;84.67;99607.14;1741831;81;21203;-57
2020/12/24 00:59:49;;;;;;;30.75;15.83;;;;;;;1.48;84.42;99606.30;1742790;82;22026;-58
2020/12/24 01:02:16;;;;;;;39.90;15.38;;;;;;;1.57;84.17;99614.07;1765331;81;21650;-57
2020/12/24 01:04:44;;;;;;;51.85;16.07;;;;;;;1.55;84.24;99612.14;1745452;81;21561;-57
2020/12/24 01:07:11;;;;;;;35.80;15.32;;;;;;;1.51;84.45;99611.74;1741245;82;21174;-57
2020/12/24 01:09:38;;;;;;;24.02;13.90;;;;;;;1.47;84.39;99605.16;1671592;84;21214;-57
2020/12/24 01:12:07;;;;;;;42.90;16.12;;;;;;;1.59;83.95;99618.72;1741266;81;21138;-57
2020/12/24 01:14:34;;;;;;;44.35;15.20;;;;;;;1.64;83.76;99606.28;1740779;82;21213;-57
2020/12/24 01:17:01;;;;;;;44.10;14.98;;;;;;;1.57;83.90;99602.82;1740726;82;21199;-57
2020/12/24 01:19:28;;;;;;;30.90;14.35;;;;;;;1.52;83.99;99608.03;1741846;81;21613;-57
2020/12/24 01:21:56;;;;;;;36.33;14.65;;;;;;;1.57;83.75;99610.05;1740670;82;21639;-57
2020/12/24 01:24:23;;;;;;;35.70;14.65;;;;;;;1.66;83.43;99612.27;1742373;82;21649;-57
2020/12/24 01:26:51;;;;;;;45.48;14.35;;;;;;;1.64;83.54;99612.98;1741927;81;21170;-57
2020/12/24 01:29:18;;;;;;;38.40;13.45;;;;;;;1.56;83.57;99615.13;1741380;81;21316;-57
2020/12/24 01:31:47;;;;;;;29.82;14.40;;;;;;;1.47;83.66;99607.84;1740928;81;21614;-57
2020/12/24 01:34:15;;;;;;;31.17;14.38;;;;;;;1.51;83.60;99603.70;1741059;81;21150;-57
2020/12/24 01:36:43;;;;;;;46.68;14.30;;;;;;;1.59;83.30;99600.77;1741043;81;21649;-57
2020/12/24 01:39:11;;;;;;;31.85;13.55;;;;;;;1.52;83.41;99602.67;1741482;81;21159;-57
2020/12/24 01:41:40;;;;;;;35.40;14.03;;;;;;;1.44;83.69;99599.72;1744865;81;21658;-57
2020/12/24 01:44:08;;;;;;;24.90;14.33;;;;;;;1.41;83.91;99599.33;1732670;82;21234;-57
2020/12/24 01:46:36;;;;;;;31.07;14.13;;;;;;;1.54;83.50;99599.23;1756413;81;21154;-57
2020/12/24 01:49:05;;;;;;;34.45;14.45;;;;;;;1.58;83.17;99607.67;1745432;81;21157;-57
2020/12/24 01:51:33;;;;;;;34.15;13.95;;;;;;;1.48;83.41;99607.64;1740839;82;21177;-57
2020/12/24 01:54:00;;;;;;;23.90;13.10;;;;;;;1.42;83.54;99599.09;1720328;82;21648;-57
2020/12/24 01:56:28;;;;;;;30.02;13.90;;;;;;;1.43;83.35;99595.38;1743091;82;21188;-57
2020/12/24 01:58:57;;;;;;;41.55;14.95;;;;;;;1.48;82.98;99598.77;1709559;83;21316;-57
2020/12/24 02:01:24;;;;;;;39.73;14.35;;;;;;;1.37;83.16;99595.43;1707246;84;21207;-57
2020/12/24 02:03:52;;;;;;;36.33;14.60;;;;;;;1.29;83.45;99590.31;1698225;84;21700;-57
2020/12/24 02:06:19;;;;;;;27.58;15.08;;;;;;;1.30;83.43;99583.41;1682002;84;21626;-58
2020/12/24 02:08:48;;;;;;;37.38;15.25;;;;;;;1.38;83.16;99585.02;1675800;84;21638;-57
2020/12/24 02:11:15;;;;;;;36.60;13.53;;;;;;;1.30;83.32;99579.38;1672616;85;21173;-57
2020/12/24 02:13:42;;;;;;;28.65;15.03;;;;;;;1.19;83.60;99588.63;1751251;80;21150;-57
2020/12/24 02:16:09;;;;;;;35.45;15.32;;;;;;;1.17;83.70;99587.48;1736637;81;21183;-57
2020/12/24 02:18:37;;;;;;;36.42;15.48;;;;;;;1.19;83.57;99582.75;1751643;81;21201;-57
2020/12/24 02:21:04;;;;;;;46.50;16.37;;;;;;;1.08;83.93;99575.89;1757067;81;21211;-57
2020/12/24 02:23:32;;;;;;;31.45;16.17;;;;;;;0.98;84.27;99577.70;1755751;81;21643;-57
2020/12/24 02:25:59;;;;;;;40.98;16.52;;;;;;;1.00;84.26;99575.10;1738555;81;21203;-57
2020/12/24 02:28:27;;;;;;;35.48;14.38;;;;;;;1.09;84.07;99573.52;1751632;81;21170;-57
2020/12/24 02:30:54;;;;;;;57.67;16.45;;;;;;;1.02;84.34;99576.75;1756217;81;21173;-57
2020/12/24 02:33:21;;;;;;;33.83;17.45;;;;;;;0.93;84.62;99577.50;1745045;81;21308;-57
2020/12/24 02:35:49;;;;;;;50.08;16.77;;;;;;;0.96;84.60;99576.56;1745042;81;21768;-57
2020/12/24 02:38:16;;;;;;;34.63;15.23;;;;;;;1.04;84.42;99576.84;1748653;81;21233;-58
2020/12/24 02:40:43;;;;;;;39.23;14.05;;;;;;;0.99;84.71;99583.38;1738840;81;21150;-57
2020/12/24 02:43:10;;;;;;;26.48;14.85;;;;;;;0.91;84.97;99582.27;1742747;81;21166;-57
2020/12/24 02:45:38;;;;;;;36.48;16.57;;;;;;;0.94;85.00;99586.69;1691433;83;21199;-57
2020/12/24 02:48:05;;;;;;;35.98;14.73;;;;;;;1.04;84.70;99590.75;1753938;81;21162;-57
2020/12/24 02:50:33;;;;;;;53.78;15.30;;;;;;;0.97;84.92;99588.11;1738788;81;21200;-58
2020/12/24 02:53:00;;;;;;;20.50;11.33;;;;;;;0.89;85.26;99587.00;1752046;81;21201;-58
2020/12/24 02:55:28;;;;;;;31.23;14.83;;;;;;;0.91;85.41;99588.45;1742453;81;21304;-57
2020/12/24 02:57:55;;;;;;;36.58;14.93;;;;;;;1.00;85.02;99595.72;1737311;81;21141;-57
2020/12/24 03:00:22;;;;;;;36.80;14.35;;;;;;;0.95;85.24;99590.20;1737650;81;21377;-57
2020/12/24 03:02:50;;;;;;;34.05;15.65;;;;;;;0.87;85.54;99585.06;1737929;81;21169;-57
2020/12/24 03:05:17;;;;;;;29.67;15.20;;;;;;;0.92;85.45;99579.91;1738255;81;21138;-57
2020/12/24 03:07:52;;;;;;;41.80;17.77;;;;;;;1.00;85.17;99585.00;1749790;81;21126;-57
2020/12/24 03:10:19;;;;;;;45.48;15.55;;;;;;;0.95;85.31;99584.83;1750825;81;21158;-57
2020/12/24 03:12:46;;;;;;;36.68;17.65;;;;;;;0.91;85.58;99590.31;1753518;81;21157;-57
2020/12/24 03:15:14;;;;;;;33.30;16.77;;;;;;;0.97;85.46;99586.77;1686652;85;21190;-57
2020/12/24 03:17:41;;;;;;;47.88;16.82;;;;;;;1.05;85.12;99578.49;1754979;81;21681;-57
2020/12/24 03:20:10;;;;;;;33.95;13.32;;;;;;;1.00;85.26;99571.59;1735758;81;21181;-57
2020/12/24 03:22:38;;;;;;;30.55;16.25;;;;;;;0.91;85.52;99570.21;1747444;81;21458;-57
2020/12/24 03:25:05;;;;;;;29.85;14.07;;;;;;;0.94;85.46;99569.27;1766911;81;21312;-57
2020/12/24 03:27:33;;;;;;;42.20;16.50;;;;;;;0.99;85.22;99564.06;1672377;85;21316;-57
2020/12/24 03:30:00;;;;;;;43.00;13.90;;;;;;;0.94;85.39;99581.33;1745140;81;21118;-57
2020/12/24 03:32:27;;;;;;;23.10;13.38;;;;;;;0.88;85.74;99572.81;1744693;81;21154;-58
2020/12/24 03:34:54;;;;;;;30.37;15.08;;;;;;;0.93;85.72;99569.47;1749071;81;21169;-58
2020/12/24 03:37:22;;;;;;;25.90;13.53;;;;;;;1.02;85.44;99556.14;1742972;81;21907;-57
2020/12/24 03:39:49;;;;;;;33.85;12.47;;;;;;;0.98;85.69;99552.23;1746008;81;21118;-58
2020/12/24 03:42:16;;;;;;;25.55;14.07;;;;;;;0.92;85.96;99557.13;1750221;81;21179;-57
2020/12/24 03:44:43;;;;;;;21.17;12.90;;;;;;;0.98;85.87;99548.22;1754844;81;21182;-57
2020/12/24 03:47:10;;;;;;;28.40;13.53;;;;;;;1.06;85.58;99553.34;1754439;81;21194;-57
2020/12/24 03:49:38;;;;;;;33.40;13.48;;;;;;;0.98;85.75;99543.69;1738040;81;21163;-57
2020/12/24 03:52:05;;;;;;;24.32;14.33;;;;;;;0.91;85.97;99546.92;1758466;81;21145;-58
2020/12/24 03:54:32;;;;;;;30.97;14.03;;;;;;;0.95;85.87;99547.31;1689040;84;21221;-58
2020/12/24 03:57:00;;;;;;;31.17;13.35;;;;;;;1.04;85.64;99543.84;1752632;81;21214;-58
2020/12/24 03:59:27;;;;;;;25.80;11.83;;;;;;;0.96;85.88;99550.27;1739769;81;21146;-58
2020/12/24 04:01:54;;;;;;;27.70;14.47;;;;;;;0.89;86.11;99543.61;1747373;81;21437;-58
2020/12/24 04:04:22;;;;;;;28.80;12.93;;;;;;;0.90;86.07;99534.55;1746643;81;21161;-58
2020/12/24 04:06:49;;;;;;;41.88;12.50;;;;;;;0.96;85.83;99531.00;1765842;81;21198;-58
2020/12/24 04:09:17;;;;;;;42.75;12.75;;;;;;;0.85;86.19;99529.53;1752155;81;21120;-57
2020/12/24 04:11:45;;;;;;;24.77;13.08;;;;;;;0.76;86.44;99534.30;1743473;81;21174;-58
2020/12/24 04:14:13;;;;;;;33.40;12.50;;;;;;;0.80;86.34;99533.36;1741783;81;21177;-57
2020/12/24 04:16:40;;;;;;;18.50;9.40;;;;;;;0.82;86.17;99538.80;1740819;81;21563;-58
2020/12/24 04:19:07;;;;;;;35.25;11.90;;;;;;;0.72;86.59;99526.89;1742739;81;21182;-58
2020/12/24 04:21:35;;;;;;;24.52;13.08;;;;;;;0.69;86.72;99523.31;1744819;81;21590;-58
2020/12/24 04:24:02;;;;;;;20.85;11.18;;;;;;;0.80;86.41;99528.00;1741287;82;21174;-57
2020/12/24 04:26:29;;;;;;;25.60;10.72;;;;;;;0.83;86.27;99531.08;1740564;81;21303;-58
2020/12/24 04:28:56;;;;;;;20.92;11.18;;;;;;;0.76;86.54;99523.59;1740665;82;21186;-57
2020/12/24 04:31:24;;;;;;;19.10;12.03;;;;;;;0.72;86.69;99522.36;1741274;81;21181;-58
2020/12/24 04:33:51;;;;;;;29.05;12.45;;;;;;;0.85;86.38;99524.97;1740714;82;21149;-58
2020/12/24 04:36:19;;;;;;;35.05;11.65;;;;;;;0.85;86.39;99517.47;1742994;81;21243;-59
2020/12/24 04:38:46;;;;;;;30.27;14.78;;;;;;;0.77;86.66;99525.75;1678495;84;21634;-57
2020/12/24 04:41:13;;;;;;;27.70;14.38;;;;;;;0.80;86.61;99518.63;1742316;81;21142;-57
2020/12/24 04:43:41;;;;;;;33.85;13.32;;;;;;;0.91;86.26;99516.09;1742712;82;21153;-57
2020/12/24 04:46:10;;;;;;;43.15;11.53;;;;;;;0.85;86.42;99512.12;1753484;81;21172;-58
2020/12/24 04:48:38;;;;;;;31.73;16.77;;;;;;;0.77;86.65;99517.20;1707519;81;21656;-58
2020/12/24 04:51:09;;;;;;;24.57;12.18;;;;;;;0.81;86.61;99511.72;1707456;83;21219;-57
2020/12/24 04:53:37;;;;;;;37.23;14.15;;;;;;;0.88;86.40;99517.05;1667540;84;21359;-58
2020/12/24 04:56:07;;;;;;;49.30;16.23;;;;;;;0.83;86.56;99527.57;1742550;81;21299;-58
2020/12/24 04:58:35;;;;;;;25.25;15.20;;;;;;;0.80;86.83;99533.36;1741770;81;21161;-57
2020/12/24 05:01:02;;;;;;;23.38;11.78;;;;;;;0.89;86.71;99533.41;1742864;81;21169;-57
2020/12/24 05:03:29;;;;;;;30.72;12.50;;;;;;;1.01;86.31;99530.36;1750157;81;21185;-58
2020/12/24 05:05:58;;;;;;;40.75;13.25;;;;;;;0.98;86.40;99527.60;1711153;83;21219;-58
2020/12/24 05:08:26;;;;;;;21.95;12.95;;;;;;;0.89;86.62;99522.17;1680244;84;21171;-58
2020/12/24 05:11:07;;;;;;;27.87;13.70;;;;;;;0.94;86.52;99533.59;1740657;82;21177;-58
2020/12/24 05:13:36;;;;;;;30.27;12.60;;;;;;;1.00;86.24;99532.22;1740802;82;21292;-58
2020/12/24 05:16:15;;;;;;;24.35;10.45;;;;;;;0.93;86.47;99535.96;1752938;81;21501;-58
2020/12/24 05:18:43;;;;;;;15.23;9.45;;;;;;;0.88;86.78;99536.63;1742495;81;21276;-58
2020/12/24 05:21:10;;;;;;;10.55;6.42;;;;;;;0.91;86.79;99528.67;1741916;81;21183;-58
2020/12/24 05:23:37;;;;;;;10.85;5.85;;;;;;;0.96;86.58;99526.98;1738836;81;21174;-58
2020/12/24 05:26:19;;;;;;;9.90;6.20;;;;;;;0.91;86.89;99528.67;1704423;84;21627;-58
2020/12/24 05:28:46;;;;;;;13.75;7.92;;;;;;;0.88;87.12;99528.59;1763494;80;21622;-58
2020/12/24 05:31:33;;;;;;;15.88;8.83;;;;;;;1.01;86.79;99529.02;1743551;81;21653;-58
2020/12/24 05:34:07;;;;;;;15.00;6.67;;;;;;;1.05;86.67;99522.20;1776645;79;23541;-57
2020/12/24 05:36:35;;;;;;;12.15;7.00;;;;;;;0.95;86.91;99527.20;1709950;82;21184;-57
2020/12/24 05:39:02;;;;;;;13.32;7.30;;;;;;;0.97;86.95;99534.50;1643104;87;21330;-57
2020/12/24 05:41:37;;;;;;;22.20;8.85;;;;;;;1.04;86.65;99533.12;1618270;86;21630;-57
2020/12/24 05:44:12;;;;;;;14.03;6.83;;;;;;;1.00;86.75;99540.26;1658161;85;21173;-57
2020/12/24 05:46:44;;;;;;;15.53;8.43;;;;;;;0.94;87.02;99535.77;1651107;87;21238;-57
2020/12/24 05:49:20;;;;;;;15.60;7.67;;;;;;;0.97;86.92;99530.48;1656928;85;21276;-57
2020/12/24 05:51:59;;;;;;;20.02;7.12;;;;;;;1.01;86.68;99522.32;1649981;87;21359;-57
2020/12/24 05:54:28;;;;;;;19.90;7.55;;;;;;;0.94;86.88;99513.50;1652485;85;21185;-57
2020/12/24 05:56:57;;;;;;;9.78;6.35;;;;;;;0.87;87.13;99514.05;1650849;87;21257;-57
2020/12/24 05:59:26;;;;;;;15.13;7.03;;;;;;;0.94;86.89;99509.48;1671795;85;21192;-57
2020/12/24 06:02:11;;;;;;;19.90;7.20;;;;;;;0.99;86.67;99505.09;1668719;85;21576;-57
2020/12/24 06:04:47;;;;;;;13.00;6.80;;;;;;;0.92;86.95;99499.50;1653506;85;21180;-57
2020/12/24 06:07:30;;;;;;;;;;;;;;;0.91;87.05;99505.89;1653430;85;21203;-58
2020/12/24 06:10:08;;;;;;;14.13;6.83;;;;;;;0.98;86.75;99505.33;1662652;86;20656;-57
2020/12/24 06:12:50;;;;;;;9.15;5.28;;;;;;;0.83;87.26;99500.77;1690647;85;21228;-58
2020/12/24 06:15:18;;;;;;;9.55;5.58;;;;;;;0.77;87.57;99500.30;1689953;85;21152;-58
2020/12/24 06:17:47;;;;;;;10.23;5.97;;;;;;;0.86;87.23;99507.86;1670856;85;21180;-58
2020/12/24 06:20:18;;;;;;;13.95;6.35;;;;;;;0.91;87.10;99505.89;1651251;85;21217;-58
2020/12/24 06:22:46;;;;;;;12.65;8.23;;;;;;;0.86;87.30;99503.02;1662467;86;21330;-57
2020/12/24 06:25:13;;;;;;;12.37;7.75;;;;;;;0.84;87.45;99500.57;1650993;85;21341;-58
2020/12/24 06:27:48;;;;;;;9.50;6.33;;;;;;;0.97;87.03;99497.80;1655951;86;21329;-58
2020/12/24 06:30:24;;;;;;;8.38;5.03;;;;;;;0.94;87.08;99496.90;1662670;85;21208;-58
2020/12/24 06:32:53;;;;;;;8.38;5.42;;;;;;;0.84;87.43;99491.70;1631318;87;21192;-58
2020/12/24 06:35:37;;;;;;;6.72;4.28;;;;;;;0.91;87.33;99491.15;1651125;85;21200;-58
2020/12/24 06:38:07;;;;;;;10.88;5.80;;;;;;;0.96;87.13;99486.77;1677981;85;21201;-57
2020/12/24 06:40:37;;;;;;;9.15;5.28;;;;;;;0.92;87.35;99488.78;1678363;85;21680;-58
2020/12/24 06:43:05;;;;;;;10.72;6.40;;;;;;;0.89;87.54;99480.63;1678288;85;21224;-58
2020/12/24 06:45:40;;;;;;;13.08;7.40;;;;;;;1.03;87.13;99485.38;1677893;84;21621;-58
2020/12/24 06:48:24;;;;;;;19.75;14.93;;;;;;;1.04;87.05;99481.67;1632524;86;21225;-58
2020/12/24 06:50:56;;;;;;;11.05;6.35;;;;;;;0.98;87.27;99476.67;1650931;85;21653;-57
2020/12/24 06:53:34;;;;;;;14.05;7.45;;;;;;;1.03;87.20;99473.87;1649279;85;21204;-58
2020/12/24 06:59:03;;;;;;;12.60;6.85;;;;;;;1.03;87.21;99458.58;1818322;79;23256;-59
2020/12/24 07:01:35;;;;;;;11.78;6.70;;;;;;;0.95;87.42;99461.55;1768352;80;21187;-60
2020/12/24 07:04:55;;;;;;;11.93;7.72;;;;;;;1.14;86.97;99466.44;1779001;79;22840;-58
2020/12/24 07:07:43;;;;;;;13.72;6.72;;;;;;;1.07;87.00;99475.05;1702072;82;21203;-59
2020/12/24 07:10:31;;;;;;;;;;;;;;;1.00;87.26;99476.44;1692771;85;21196;-58
2020/12/24 07:13:00;;;;;;;11.50;6.83;;;;;;;1.04;87.04;99466.93;1680815;85;20591;-59
2020/12/24 07:15:27;;;;;;;14.25;6.50;;;;;;;1.06;86.93;99461.37;1690245;85;21321;-59
2020/12/24 07:17:54;;;;;;;11.65;6.80;;;;;;;0.87;87.16;99450.56;1656371;85;21338;-58
2020/12/24 07:20:24;;;;;;;11.80;7.33;;;;;;;0.89;87.37;99465.89;1650777;87;21195;-59
2020/12/24 07:22:53;;;;;;;10.35;6.45;;;;;;;1.00;86.99;99467.88;1650390;87;21191;-59
2020/12/24 07:25:22;;;;;;;10.30;6.83;;;;;;;0.98;86.87;99463.27;1655925;85;21198;-59
2020/12/24 07:27:51;;;;;;;8.68;5.10;;;;;;;0.89;87.13;99467.75;1690587;85;21177;-58
2020/12/24 07:30:21;;;;;;;10.85;6.50;;;;;;;0.91;87.00;99467.03;1683005;85;21188;-59
2020/12/24 07:32:52;;;;;;;9.28;5.17;;;;;;;0.95;86.76;99466.39;1683304;85;21196;-59
2020/12/24 07:35:19;;;;;;;10.60;6.65;;;;;;;0.89;86.93;99470.42;1664848;85;21350;-57
2020/12/24 07:37:50;;;;;;;9.40;5.78;;;;;;;0.83;87.13;99466.77;1667394;85;21176;-57
2020/12/24 07:40:17;;;;;;;9.00;5.30;;;;;;;0.88;86.92;99462.11;1650434;87;21200;-57
2020/12/24 07:42:45;;;;;;;10.32;6.42;;;;;;;0.83;86.83;99466.77;1688568;85;21548;-57
2020/12/24 07:45:13;;;;;;;9.65;5.95;;;;;;;0.80;87.00;99479.77;1681395;85;21597;-58
2020/12/24 07:47:44;;;;;;;8.23;5.37;;;;;;;0.85;86.97;99483.98;1655994;85;21185;-59
2020/12/24 07:50:11;;;;;;;9.70;5.47;;;;;;;0.93;86.64;99478.34;1683446;85;21181;-58
2020/12/24 07:52:39;;;;;;;8.75;5.20;;;;;;;0.86;86.85;99476.22;1683563;85;21180;-58
2020/12/24 07:55:09;;;;;;;7.45;4.62;;;;;;;0.81;87.03;99470.19;1681478;84;21206;-59
2020/12/24 07:57:37;;;;;;;8.60;4.85;;;;;;;0.95;86.70;99473.60;1683509;85;21592;-58
2020/12/24 08:00:04;;;;;;;8.40;4.87;;;;;;;0.99;86.54;99486.33;1683340;85;21339;-58
2020/12/24 08:02:31;;;;;;;10.23;5.80;;;;;;;0.92;86.74;99478.86;1681387;84;21176;-59
2020/12/24 08:04:58;;;;;;;8.03;5.03;;;;;;;0.92;86.83;99483.42;1657633;84;21755;-59
2020/12/24 08:07:25;;;;;;;10.18;5.47;;;;;;;1.04;86.46;99487.03;1645089;87;21810;-57
2020/12/24 08:09:53;;;;;;;10.82;6.00;;;;;;;1.04;86.47;99488.38;1657370;85;21333;-57
2020/12/24 08:12:22;;;;;;;10.43;6.35;;;;;;;1.00;86.63;99487.16;1667884;84;21365;-58
2020/12/24 08:14:50;;;;;;;11.45;6.33;;;;;;;1.07;86.53;99489.80;1645021;87;21594;-59
2020/12/24 08:17:30;;;;;;;12.80;6.62;;;;;;;1.17;86.16;99491.50;1653144;85;21209;-59
2020/12/24 08:20:08;;;;;;;14.20;8.10;;;;;;;1.10;86.27;99488.05;1675001;85;21181;-59
2020/12/24 08:22:52;;;;;;;10.88;6.85;;;;;;;0.94;86.43;99483.50;1674218;85;21209;-58
2020/12/24 08:25:19;;;;;;;13.72;7.90;;;;;;;0.97;86.24;99484.41;1629656;87;21369;-58
2020/12/24 08:27:46;;;;;;;11.00;7.03;;;;;;;0.98;86.13;99479.87;1648695;87;21324;-59
2020/12/24 08:30:14;;;;;;;10.82;6.92;;;;;;;0.87;86.33;99468.48;1657929;86;21188;-59
2020/12/24 08:32:42;;;;;;;13.15;8.00;;;;;;;0.87;86.38;99468.48;1648570;87;21201;-58
2020/12/24 08:35:13;;;;;;;12.80;8.18;;;;;;;0.88;86.25;99459.42;1683102;85;21148;-58
2020/12/24 08:37:40;;;;;;;12.65;7.87;;;;;;;0.84;86.46;99459.55;1685252;85;21317;-58
2020/12/24 08:40:25;;;;;;;13.68;7.70;;;;;;;0.77;86.73;99454.75;1685332;85;21338;-59
2020/12/24 08:42:58;;;;;;;11.63;6.92;;;;;;;0.83;86.43;99453.36;1685169;85;21200;-59
2020/12/24 08:45:29;;;;;;;11.55;7.17;;;;;;;0.86;86.39;99464.98;1670137;85;21690;-59
2020/12/24 08:47:57;;;;;;;12.45;7.45;;;;;;;0.78;86.63;99457.73;1654179;85;21168;-58
2020/12/24 08:50:35;;;;;;;10.08;6.85;;;;;;;0.83;86.50;99453.36;1667585;85;21215;-57
2020/12/24 08:53:05;;;;;;;10.65;6.95;;;;;;;0.91;86.22;99440.23;1643296;87;21183;-57
2020/12/24 08:55:32;;;;;;;9.05;6.25;;;;;;;0.87;86.38;99440.36;1672861;86;21368;-57
2020/12/24 08:58:00;;;;;;;10.55;6.60;;;;;;;0.82;86.52;99432.13;1633147;87;21839;-59
2020/12/24 09:00:28;;;;;;;9.43;6.25;;;;;;;0.92;86.19;99420.44;1663024;86;21192;-59
2020/12/24 09:02:55;;;;;;;11.05;7.00;;;;;;;0.87;86.23;99422.42;1659880;86;21196;-60
2020/12/24 09:05:25;;;;;;;9.95;6.53;;;;;;;0.79;86.52;99420.51;1644325;84;21276;-60
2020/12/24 09:07:53;;;;;;;9.50;5.97;;;;;;;0.85;86.43;99425.81;1663232;86;21641;-59
2020/12/24 09:10:27;;;;;;;9.60;6.10;;;;;;;0.92;86.27;99423.12;1661184;86;21201;-59
2020/12/24 09:13:02;;;;;;;8.25;5.45;;;;;;;0.85;86.53;99415.64;1653359;86;21182;-59
2020/12/24 09:15:29;;;;;;;7.87;5.67;;;;;;;0.85;86.55;99412.97;1635267;88;21654;-58
2020/12/24 09:17:58;;;;;;;7.83;5.22;;;;;;;0.95;86.23;99406.08;1673912;85;21323;-58
2020/12/24 09:20:30;;;;;;;10.78;6.85;;;;;;;0.93;86.30;99403.30;1670701;86;21195;-58
2020/12/24 09:22:59;;;;;;;9.43;6.80;;;;;;;0.89;86.54;99407.45;1669402;84;21131;-58
2020/12/24 09:25:43;;;;;;;11.15;7.35;;;;;;;0.95;86.48;99409.28;1671490;84;21160;-58
2020/12/24 09:28:26;;;;;;;17.60;11.15;;;;;;;0.92;86.34;99390.41;1671026;85;21301;-59
2020/12/24 09:30:57;;;;;;;15.40;9.43;;;;;;;0.96;86.55;99392.14;1670705;86;21379;-58
2020/12/24 09:33:26;;;;;;;14.78;9.70;;;;;;;0.96;86.55;99385.44;1670695;85;21150;-58
2020/12/24 09:35:53;;;;;;;16.15;9.55;;;;;;;1.07;86.20;99384.73;1670818;85;21598;-58
2020/12/24 09:38:22;;;;;;;19.80;11.97;;;;;;;1.03;86.33;99382.73;1697802;84;21161;-58
2020/12/24 09:40:50;;;;;;;14.28;9.98;;;;;;;0.97;86.61;99373.69;1679282;85;21174;-58
2020/12/24 09:43:17;;;;;;;14.83;10.23;;;;;;;1.00;86.63;99370.56;1658207;86;21220;-58
2020/12/24 09:45:44;;;;;;;20.37;12.20;;;;;;;1.07;86.38;99359.78;1674287;85;21743;-57
2020/12/24 09:48:12;;;;;;;15.60;10.43;;;;;;;1.05;86.53;99355.17;1663550;86;21626;-58
2020/12/24 09:50:40;;;;;;;15.55;10.53;;;;;;;1.02;86.64;99345.72;1659374;86;21265;-58
2020/12/24 09:53:07;;;;;;;13.62;8.95;;;;;;;1.16;86.24;99346.41;1680699;85;21188;-58
2020/12/24 09:55:34;;;;;;;12.63;7.83;;;;;;;1.09;86.38;99341.12;1681191;84;21170;-58
2020/12/24 09:58:02;;;;;;;17.27;10.85;;;;;;;0.99;86.72;99334.10;1706454;82;21160;-57
2020/12/24 10:00:30;;;;;;;20.15;14.30;;;;;;;1.10;86.54;99326.66;1714708;81;21356;-57
2020/12/24 10:02:57;;;;;;;13.05;9.18;;;;;;;1.15;86.44;99324.66;1707882;82;21625;-58
2020/12/24 10:05:24;;;;;;;13.15;8.50;;;;;;;1.08;86.69;99317.20;1709121;81;21624;-57
2020/12/24 10:07:52;;;;;;;11.97;7.87;;;;;;;1.13;86.60;99330.26;1727890;82;21301;-57
2020/12/24 10:10:20;;;;;;;12.80;8.13;;;;;;;1.22;86.28;99316.03;1699571;84;21137;-57
2020/12/24 10:12:48;;;;;;;16.73;10.23;;;;;;;1.15;86.46;99317.44;1709403;84;21268;-57
2020/12/24 10:15:15;;;;;;;20.88;12.70;;;;;;;1.07;86.72;99316.38;1698141;84;21304;-57
2020/12/24 10:17:42;;;;;;;27.65;17.85;;;;;;;1.12;86.67;99307.16;1700458;84;21311;-59
2020/12/24 10:20:09;;;;;;;37.45;18.67;;;;;;;1.13;86.56;99308.81;1704867;84;21213;-58
2020/12/24 10:22:37;;;;;;;27.52;15.05;;;;;;;1.13;86.59;99312.01;1703455;84;21297;-56
2020/12/24 10:25:05;;;;;;;19.12;13.15;;;;;;;1.03;86.82;99291.59;1706153;84;21648;-57
2020/12/24 10:27:32;;;;;;;17.90;11.12;;;;;;;1.11;86.54;99305.52;1709187;84;21707;-57
2020/12/24 10:29:59;;;;;;;16.07;10.50;;;;;;;1.08;86.57;99299.77;1742862;81;21207;-57
2020/12/24 10:32:26;;;;;;;16.57;10.48;;;;;;;1.01;86.87;99303.86;1699095;82;21153;-57
2020/12/24 10:34:53;;;;;;;18.57;11.68;;;;;;;1.07;86.75;99296.27;1707889;84;21205;-57
2020/12/24 10:37:21;;;;;;;22.58;14.33;;;;;;;1.13;86.47;99295.92;1670780;84;21330;-57
2020/12/24 10:39:48;;;;;;;49.05;26.23;;;;;;;1.06;86.68;99295.99;1709326;84;21178;-57
2020/12/24 10:42:17;;;;;;;33.08;17.57;;;;;;;1.04;86.84;99286.51;1696396;84;21150;-57
2020/12/24 10:44:44;;;;;;;20.10;11.97;;;;;;;1.08;86.68;99281.84;1680543;85;21200;-57
2020/12/24 10:47:11;;;;;;;24.77;14.50;;;;;;;1.10;86.49;99287.78;1702995;84;21142;-57
2020/12/24 10:49:41;;;;;;;24.55;15.65;;;;;;;1.03;86.69;99284.34;1709163;83;21210;-58
2020/12/24 10:52:12;;;;;;;32.90;21.60;;;;;;;1.03;86.72;99280.33;1703039;84;21185;-58
2020/12/24 10:54:39;;;;;;;28.52;17.80;;;;;;;1.13;86.41;99284.69;1685744;84;21201;-57
2020/12/24 10:57:07;;;;;;;18.75;12.07;;;;;;;1.04;86.65;99271.77;1679675;84;21182;-59
2020/12/24 10:59:34;;;;;;;27.58;15.43;;;;;;;0.96;86.97;99270.19;1734634;82;21186;-58
2020/12/24 11:02:01;;;;;;;18.62;12.13;;;;;;;1.02;86.81;99268.50;1709050;81;21797;-57
2020/12/24 11:04:30;;;;;;;19.48;12.18;;;;;;;1.06;86.63;99261.14;1713799;83;21193;-57
2020/12/24 11:06:57;;;;;;;22.20;13.53;;;;;;;0.98;86.88;99264.11;1722225;83;21161;-57
2020/12/24 11:09:24;;;;;;;15.78;10.18;;;;;;;0.95;87.06;99251.16;1722552;83;21636;-57
2020/12/24 11:11:54;;;;;;;15.78;9.75;;;;;;;1.01;86.85;99251.59;1692327;83;21164;-58
2020/12/24 11:14:21;;;;;;;19.65;11.25;;;;;;;1.02;86.73;99237.68;1722787;83;21687;-57
2020/12/24 11:16:48;;;;;;;19.40;12.53;;;;;;;0.96;86.91;99236.17;1718705;83;21153;-58
2020/12/24 11:19:15;;;;;;;17.15;10.82;;;;;;;1.00;86.88;99233.86;1719893;83;21319;-57
2020/12/24 11:21:42;;;;;;;20.75;12.65;;;;;;;1.04;86.62;99225.69;1694429;83;21474;-57
2020/12/24 11:24:09;;;;;;;20.62;12.33;;;;;;;0.99;86.78;99225.55;1706360;83;21172;-57
2020/12/24 11:26:38;;;;;;;16.82;10.25;;;;;;;0.88;87.19;99207.00;1698331;82;21207;-59
2020/12/24 11:29:07;;;;;;;19.20;10.90;;;;;;;1.04;86.83;99215.48;1705709;83;21384;-59
2020/12/24 11:31:37;;;;;;;18.17;10.63;;;;;;;1.00;86.71;99209.74;1697443;83;21201;-58
2020/12/24 11:34:06;;;;;;;20.80;13.28;;;;;;;0.91;87.06;99210.58;1698351;83;21182;-58
2020/12/24 11:36:35;;;;;;;19.15;12.00;;;;;;;0.95;87.03;99204.25;1694470;83;21671;-58
2020/12/24 11:39:04;;;;;;;16.32;10.20;;;;;;;1.05;86.69;99203.72;1703421;83;21588;-57
2020/12/24 11:41:34;;;;;;;14.05;8.95;;;;;;;0.92;86.93;99204.16;1722918;83;21193;-58